Weather

DAILY 7 DAY TOTAL
onrain

Note: Some stations are located near irrigated fields and may also report irrigation

Alliston Mount Forest Blyth Guelph Grand Bend Strathroy Woodstock Belmont Simcoe Leamington Chatham West Lorne






Rockwood-Bayer - Historical Weather Data
Date Max Temp (°C) Min Temp (°C) Avg Temp (°C) Rain (mm) 7Day Rain(mm) Total Rain(mm) Avg RH (%)
9/18/2017 27.0 13.8 19.7 0.0 0.2 259.6 87.8
9/17/2017 26.9 12.5 19.1 0.0 0.2 259.6 88.5
9/16/2017 25.7 11.6 18.4 0.2 0.2 259.6 90.3
9/15/2017 25.2 12.6 18.2 0.0 0.0 259.4 93.6
9/14/2017 25.5 12.7 18.6 0.0 4.6 259.4 93.4
9/13/2017 26.1 8.2 17.0 0.0 5.2 259.4 81.7
9/12/2017 24.9 7.3 15.3 0.0 5.6 259.4 80.5
9/11/2017 22.5 4.3 12.8 0.0 8.2 259.4 77.0
9/10/2017 19.5 4.8 11.4 0.0 22.2 259.4 75.8
9/9/2017 16.9 4.0 9.9 0.0 29.8 259.4 75.7
9/8/2017 17.8 6.5 11.2 4.6 31.4 259.4 84.4
9/7/2017 17.1 6.2 10.9 0.6 26.8 254.8 96.0
9/6/2017 19.3 5.6 12.5 0.4 29.6 254.2 90.5
9/5/2017 19.8 9.3 13.7 2.6 29.2 253.8 92.5
9/4/2017 24.1 11.3 17.1 14.0 26.6 251.2 90.3
9/3/2017 20.2 12.4 14.9 7.6 12.6 237.2 94.5
9/2/2017 19.5 4.1 11.8 1.6 5.0 229.6 82.3
9/1/2017 16.8 4.3 10.0 0.0 3.4 228.0 76.0
8/31/2017 17.3 5.5 13.1 3.4 3.4 228.0 79.5
8/30/2017 24.5 10.1 16.9 0.0 0.0 224.6 91.2
8/29/2017 23.2 11.2 16.7 0.0 0.0 224.6 78.7
8/28/2017 22.6 11.9 16.7 0.0 18.6 224.6 80.5
8/27/2017 21.7 7.6 14.5 0.0 18.6 224.6 74.2
8/26/2017 22.1 5.5 13.5 0.0 18.6 224.6 74.7
8/25/2017 21.0 6.5 13.0 0.0 19.0 224.6 75.9
8/24/2017 19.7 8.9 13.5 0.0 19.0 224.6 80.8
8/23/2017 20.4 9.9 14.7 0.0 31.0 224.6 89.4
8/22/2017 23.2 12.7 19.8 18.6 31.0 224.6 93.8
8/21/2017 28.4 13.2 21.2 0.0 15.4 206.0 89.1
8/20/2017 26.2 11.7 19.0 0.0 15.4 206.0 92.7
8/19/2017 21.3 13.4 17.2 0.4 15.6 206.0 95.0
8/18/2017 22.9 17.5 20.2 0.0 16.0 205.6 96.4
8/17/2017 21.2 14.2 17.3 12.0 18.6 205.6 93.5
8/16/2017 25.5 11.7 17.9 0.0 6.6 193.6 84.6
8/15/2017 25.3 13.1 18.5 3.0 7.0 193.6 86.1
8/14/2017 25.4 11.3 18.3 0.0 4.2 190.6 77.2
8/13/2017 24.8 11.5 17.9 0.2 4.2 190.6 86.0
8/12/2017 23.1 14.5 18.1 0.8 4.8 190.4 91.5
8/11/2017 23.8 15.4 19.1 2.6 5.4 189.6 88.8
8/10/2017 26.2 12.3 19.3 0.0 6.2 187.0 77.0
8/9/2017 26.4 12.3 19.3 0.4 6.2 187.0 88.8
8/8/2017 24.4 8.8 17.0 0.2 5.8 186.6 89.4
8/7/2017 20.4 12.4 15.7 0.0 5.6 186.4 90.5
8/6/2017 23.9 8.8 16.2 0.8 5.6 186.4 90.4
8/5/2017 19.5 9.7 15.0 1.4 4.8 185.6 89.5
8/4/2017 23.8 14.7 19.2 3.4 3.4 184.2 91.4
8/3/2017 25.5 14.5 20.4 0.0 0.0 180.8 86.1
8/2/2017 27.1 14.0 20.4 0.0 3.6 180.8 89.9
8/1/2017 28.2 15.1 20.7 0.0 6.0 180.8 87.1
7/31/2017 28.2 13.5 21.0 0.0 6.0 180.8 81.6
7/30/2017 26.8 15.2 20.7 0.0 13.4 180.8 69.8
7/29/2017 25.3 11.4 18.8 0.0 13.4 180.8 68.8
7/28/2017 20.8 12.1 16.6 0.0 15.0 180.8 74.1
7/27/2017 26.2 15.4 20.2 3.6 15.0 180.8 87.0
7/26/2017 21.6 11.0 16.7 2.4 23.0 177.2 90.1
7/25/2017 23.8 13.5 17.7 0.0 20.6 174.8 75.3
7/24/2017 20.7 14.0 16.6 7.4 20.6 174.8 92.1
7/23/2017 25.1 15.7 19.8 0.0 13.2 167.4 83.9
7/22/2017 22.5 16.9 19.1 1.6 13.2 167.4 84.6
7/21/2017 27.1 17.0 21.4 0.0 11.6 165.8 79.2
7/20/2017 25.0 13.2 18.2 11.6 12.0 165.8 89.2
7/19/2017 28.2 14.5 20.9 0.0 16.8 154.2 92.3
7/18/2017 26.1 13.5 20.2 0.0 20.8 154.2 89.0
7/17/2017 25.3 16.6 20.2 0.0 21.0 154.2 91.6
7/16/2017 24.1 13.8 18.5 0.0 21.0 154.2 92.2
7/15/2017 24.5 15.2 19.3 0.0 21.8 154.2 87.0
7/14/2017 24.0 15.0 18.2 0.4 21.8 154.2 95.5
7/13/2017 20.2 14.1 16.5 16.4 21.4 153.8 97.9
7/12/2017 25.7 16.5 21.1 4.0 5.0 137.4 95.0
7/11/2017 26.8 13.8 20.0 0.2 1.0 133.4 93.6
7/10/2017 22.4 15.2 18.9 0.0 0.8 133.2 95.0
7/9/2017 25.1 11.2 17.9 0.8 0.8 133.2 92.9
7/8/2017 22.4 12.6 17.9 0.0 0.0 132.4 75.4
7/7/2017 26.8 16.1 21.1 0.0 1.8 132.4 91.7
7/6/2017 28.5 12.9 21.4 0.0 11.8 132.4 83.7
7/5/2017 26.4 12.1 19.9 0.0 18.8 132.4 59.2
7/4/2017 25.7 10.9 18.5 0.0 18.8 132.4 64.8
7/3/2017 23.1 12.2 17.8 0.0 19.4 132.4 80.1
7/2/2017 24.5 11.8 18.7 0.0 20.8 132.4 94.7
7/1/2017 22.2 14.4 19.4 1.8 24.2 132.4 96.6
6/30/2017 25.8 17.7 21.1 10.0 22.4 130.6 96.0
6/29/2017 25.2 13.5 18.6 7.0 57.2 120.6 92.2
6/28/2017 22.2 9.3 16.3 0.0 55.2 113.6 87.6
6/27/2017 18.4 9.0 13.3 0.6 55.2 113.6 89.5
6/26/2017 18.5 10.7 14.5 1.4 62.0 113.0 96.9
6/25/2017 18.2 10.4 14.8 3.4 70.4 111.6 96.5
6/24/2017 20.9 13.1 17.1 0.0 80.0 108.2 90.8
6/23/2017 23.2 16.4 19.6 44.8 85.0 108.2 95.8
6/22/2017 24.9 10.5 17.5 5.0 47.8 63.4 91.2
6/21/2017 20.8 10.9 15.5 0.0 46.2 58.4 94.1
6/20/2017 20.1 12.0 15.7 7.4 46.2 58.4 97.5
6/19/2017 23.4 14.1 18.8 9.8 38.8 51.0 96.0
6/18/2017 26.1 17.1 21.9 13.0 29.0 41.2 90.3
6/17/2017 26.3 17.5 21.8 5.0 16.0 28.2 84.5
6/16/2017 28.6 14.2 20.6 7.6 11.0 23.2 90.4
6/15/2017 19.0 14.7 16.3 3.4 3.4 15.6 72.6
6/14/2017 23.3 13.6 18.3 0.0 0.0 12.2 61.5
6/13/2017 24.1 16.1 21.0 0.0 0.0 12.2 73.6
6/12/2017 30.3 17.5 24.8 0.0 2.0 12.2 85.0
6/11/2017 30.2 19.3 24.6 0.0 5.2 12.2 77.7
6/10/2017 28.5 12.1 21.3 0.0 12.0 12.2 76.6
6/9/2017 24.2 11.6 18.2 0.0 12.2 12.2 86.5
6/8/2017 22.9 7.6 16.4 0.0 12.2 12.2 68.2
6/7/2017 22.1 6.3 14.4 0.0 12.2 12.2 67.1
6/6/2017 16.8 9.5 12.4 2.0 12.2 12.2 88.3
6/5/2017 14.3 10.6 12.7 3.2 10.2 10.2 88.9
6/4/2017 24.2 10.6 15.6 6.8 7.0 7.0 86.3
6/3/2017 22.8 8.7 15.7 0.2 0.2 0.2 62.1
6/2/2017 18.3 6.3 12.9 0.0 0.0 0.0 64.9
6/1/2017 12.1 9.7 10.9 0.0 0.0 0.0 72.3